sensor_id;sensor_type;location;lat;lon;timestamp;P1;durP1;ratioP1;P2;durP2;ratioP2
52126;SDS011;38120;53.176;6.614;2023-06-10T00:02:07;8.40;;;4.97;;
52126;SDS011;38120;53.176;6.614;2023-06-10T00:04:33;9.38;;;5.88;;
52126;SDS011;38120;53.176;6.614;2023-06-10T00:06:59;11.82;;;6.32;;
52126;SDS011;38120;53.176;6.614;2023-06-10T00:09:24;12.27;;;5.68;;
52126;SDS011;38120;53.176;6.614;2023-06-10T00:11:50;11.25;;;5.38;;
52126;SDS011;38120;53.176;6.614;2023-06-10T00:14:16;10.10;;;5.85;;
52126;SDS011;38120;53.176;6.614;2023-06-10T00:16:42;7.68;;;5.22;;
52126;SDS011;38120;53.176;6.614;2023-06-10T00:19:10;11.68;;;6.10;;
52126;SDS011;38120;53.176;6.614;2023-06-10T00:21:39;9.60;;;6.20;;
52126;SDS011;38120;53.176;6.614;2023-06-10T00:24:08;10.27;;;6.82;;
52126;SDS011;38120;53.176;6.614;2023-06-10T00:26:40;10.07;;;6.05;;
52126;SDS011;38120;53.176;6.614;2023-06-10T00:29:06;9.52;;;6.63;;
52126;SDS011;38120;53.176;6.614;2023-06-10T00:31:36;10.32;;;7.10;;
52126;SDS011;38120;53.176;6.614;2023-06-10T00:34:02;10.05;;;6.32;;
52126;SDS011;38120;53.176;6.614;2023-06-10T00:36:29;11.95;;;8.07;;
52126;SDS011;38120;53.176;6.614;2023-06-10T00:41:21;12.45;;;8.43;;
52126;SDS011;38120;53.176;6.614;2023-06-10T00:43:49;13.50;;;8.45;;
52126;SDS011;38120;53.176;6.614;2023-06-10T00:46:14;13.18;;;8.23;;
52126;SDS011;38120;53.176;6.614;2023-06-10T00:48:43;13.30;;;8.35;;
52126;SDS011;38120;53.176;6.614;2023-06-10T00:51:10;12.73;;;7.93;;
52126;SDS011;38120;53.176;6.614;2023-06-10T00:53:37;11.50;;;7.55;;
52126;SDS011;38120;53.176;6.614;2023-06-10T00:56:05;12.10;;;7.20;;
52126;SDS011;38120;53.176;6.614;2023-06-10T00:58:31;12.88;;;8.15;;
52126;SDS011;38120;53.176;6.614;2023-06-10T01:00:57;12.70;;;8.77;;
52126;SDS011;38120;53.176;6.614;2023-06-10T01:03:23;17.23;;;10.00;;
52126;SDS011;38120;53.176;6.614;2023-06-10T01:05:50;15.75;;;10.52;;
52126;SDS011;38120;53.176;6.614;2023-06-10T01:08:35;14.38;;;10.07;;
52126;SDS011;38120;53.176;6.614;2023-06-10T01:11:13;15.43;;;10.52;;
52126;SDS011;38120;53.176;6.614;2023-06-10T01:13:46;16.20;;;10.82;;
52126;SDS011;38120;53.176;6.614;2023-06-10T01:16:16;13.15;;;9.50;;
52126;SDS011;38120;53.176;6.614;2023-06-10T01:18:44;13.77;;;8.73;;
52126;SDS011;38120;53.176;6.614;2023-06-10T01:21:22;14.25;;;9.02;;
52126;SDS011;38120;53.176;6.614;2023-06-10T01:23:54;13.73;;;8.65;;
52126;SDS011;38120;53.176;6.614;2023-06-10T01:26:22;13.70;;;9.82;;
52126;SDS011;38120;53.176;6.614;2023-06-10T01:28:57;13.25;;;9.10;;
52126;SDS011;38120;53.176;6.614;2023-06-10T01:33:59;13.65;;;9.50;;
52126;SDS011;38120;53.176;6.614;2023-06-10T01:36:25;15.45;;;9.50;;
52126;SDS011;38120;53.176;6.614;2023-06-10T01:38:53;15.07;;;9.27;;
52126;SDS011;38120;53.176;6.614;2023-06-10T01:41:20;13.95;;;8.52;;
52126;SDS011;38120;53.176;6.614;2023-06-10T01:43:46;11.55;;;8.10;;
52126;SDS011;38120;53.176;6.614;2023-06-10T01:46:13;10.48;;;7.63;;
52126;SDS011;38120;53.176;6.614;2023-06-10T01:51:06;12.98;;;6.80;;
52126;SDS011;38120;53.176;6.614;2023-06-10T01:53:32;9.70;;;6.00;;
52126;SDS011;38120;53.176;6.614;2023-06-10T01:55:57;15.60;;;5.80;;
52126;SDS011;38120;53.176;6.614;2023-06-10T01:58:23;9.40;;;4.95;;
52126;SDS011;38120;53.176;6.614;2023-06-10T02:00:48;9.02;;;5.78;;
52126;SDS011;38120;53.176;6.614;2023-06-10T02:03:16;8.50;;;5.47;;
52126;SDS011;38120;53.176;6.614;2023-06-10T02:05:43;9.20;;;4.95;;
52126;SDS011;38120;53.176;6.614;2023-06-10T02:08:09;10.23;;;4.50;;
52126;SDS011;38120;53.176;6.614;2023-06-10T02:10:34;11.52;;;5.32;;
52126;SDS011;38120;53.176;6.614;2023-06-10T02:13:00;12.25;;;5.85;;
52126;SDS011;38120;53.176;6.614;2023-06-10T02:15:26;9.23;;;4.72;;
52126;SDS011;38120;53.176;6.614;2023-06-10T02:17:52;6.93;;;4.32;;
52126;SDS011;38120;53.176;6.614;2023-06-10T02:20:17;9.48;;;5.25;;
52126;SDS011;38120;53.176;6.614;2023-06-10T02:22:46;12.48;;;5.40;;
52126;SDS011;38120;53.176;6.614;2023-06-10T02:25:12;8.60;;;4.88;;
52126;SDS011;38120;53.176;6.614;2023-06-10T02:27:38;12.98;;;4.75;;
52126;SDS011;38120;53.176;6.614;2023-06-10T02:30:03;11.40;;;4.47;;
52126;SDS011;38120;53.176;6.614;2023-06-10T02:32:30;8.10;;;4.90;;
52126;SDS011;38120;53.176;6.614;2023-06-10T02:34:55;11.10;;;5.13;;
52126;SDS011;38120;53.176;6.614;2023-06-10T02:37:21;12.30;;;4.37;;
52126;SDS011;38120;53.176;6.614;2023-06-10T02:39:47;8.60;;;4.72;;
52126;SDS011;38120;53.176;6.614;2023-06-10T02:42:15;9.23;;;5.25;;
52126;SDS011;38120;53.176;6.614;2023-06-10T02:44:40;10.73;;;4.85;;
52126;SDS011;38120;53.176;6.614;2023-06-10T02:47:06;8.13;;;4.57;;
52126;SDS011;38120;53.176;6.614;2023-06-10T02:49:32;8.73;;;4.18;;
52126;SDS011;38120;53.176;6.614;2023-06-10T02:51:57;9.77;;;4.60;;
52126;SDS011;38120;53.176;6.614;2023-06-10T02:54:25;8.57;;;4.18;;
52126;SDS011;38120;53.176;6.614;2023-06-10T02:56:51;9.43;;;4.90;;
52126;SDS011;38120;53.176;6.614;2023-06-10T02:59:17;9.65;;;5.25;;
52126;SDS011;38120;53.176;6.614;2023-06-10T03:01:44;8.07;;;4.55;;
52126;SDS011;38120;53.176;6.614;2023-06-10T03:04:13;9.63;;;4.45;;
52126;SDS011;38120;53.176;6.614;2023-06-10T03:09:09;8.80;;;4.65;;
52126;SDS011;38120;53.176;6.614;2023-06-10T03:11:35;8.40;;;5.03;;
52126;SDS011;38120;53.176;6.614;2023-06-10T03:14:01;10.45;;;4.85;;
52126;SDS011;38120;53.176;6.614;2023-06-10T03:16:27;9.23;;;5.35;;
52126;SDS011;38120;53.176;6.614;2023-06-10T03:18:53;8.60;;;4.68;;
52126;SDS011;38120;53.176;6.614;2023-06-10T03:21:19;8.18;;;4.93;;
52126;SDS011;38120;53.176;6.614;2023-06-10T03:23:45;14.63;;;5.47;;
52126;SDS011;38120;53.176;6.614;2023-06-10T03:26:11;12.77;;;6.18;;
52126;SDS011;38120;53.176;6.614;2023-06-10T03:28:39;10.32;;;5.35;;
52126;SDS011;38120;53.176;6.614;2023-06-10T03:31:05;10.65;;;4.78;;
52126;SDS011;38120;53.176;6.614;2023-06-10T03:33:31;12.95;;;5.32;;
52126;SDS011;38120;53.176;6.614;2023-06-10T03:38:23;10.20;;;4.90;;
52126;SDS011;38120;53.176;6.614;2023-06-10T03:40:49;11.98;;;4.78;;
52126;SDS011;38120;53.176;6.614;2023-06-10T03:43:14;13.40;;;5.18;;
52126;SDS011;38120;53.176;6.614;2023-06-10T03:45:40;10.95;;;5.57;;
52126;SDS011;38120;53.176;6.614;2023-06-10T03:48:06;11.25;;;5.68;;
52126;SDS011;38120;53.176;6.614;2023-06-10T03:50:33;10.82;;;6.28;;
52126;SDS011;38120;53.176;6.614;2023-06-10T03:53:00;9.32;;;5.35;;
52126;SDS011;38120;53.176;6.614;2023-06-10T03:55:26;12.23;;;6.45;;
52126;SDS011;38120;53.176;6.614;2023-06-10T03:57:52;11.48;;;6.22;;
52126;SDS011;38120;53.176;6.614;2023-06-10T04:00:18;12.88;;;5.70;;
52126;SDS011;38120;53.176;6.614;2023-06-10T04:02:53;11.20;;;4.95;;
52126;SDS011;38120;53.176;6.614;2023-06-10T04:05:19;10.20;;;5.85;;
52126;SDS011;38120;53.176;6.614;2023-06-10T04:07:47;13.00;;;5.70;;
52126;SDS011;38120;53.176;6.614;2023-06-10T04:10:13;15.77;;;7.03;;
52126;SDS011;38120;53.176;6.614;2023-06-10T04:12:39;11.57;;;6.47;;
52126;SDS011;38120;53.176;6.614;2023-06-10T04:17:32;11.30;;;6.03;;
52126;SDS011;38120;53.176;6.614;2023-06-10T04:19:58;13.38;;;6.65;;
52126;SDS011;38120;53.176;6.614;2023-06-10T04:22:23;10.85;;;6.28;;
52126;SDS011;38120;53.176;6.614;2023-06-10T04:24:49;11.45;;;6.57;;
52126;SDS011;38120;53.176;6.614;2023-06-10T04:27:15;13.48;;;6.90;;
52126;SDS011;38120;53.176;6.614;2023-06-10T04:29:40;14.38;;;6.38;;
52126;SDS011;38120;53.176;6.614;2023-06-10T04:32:06;13.52;;;6.70;;
52126;SDS011;38120;53.176;6.614;2023-06-10T04:34:33;12.77;;;6.78;;
52126;SDS011;38120;53.176;6.614;2023-06-10T04:36:59;12.55;;;6.28;;
52126;SDS011;38120;53.176;6.614;2023-06-10T04:39:25;13.23;;;6.63;;
52126;SDS011;38120;53.176;6.614;2023-06-10T04:41:51;11.57;;;6.25;;
52126;SDS011;38120;53.176;6.614;2023-06-10T04:44:17;10.60;;;6.72;;
52126;SDS011;38120;53.176;6.614;2023-06-10T04:49:09;16.42;;;7.22;;
52126;SDS011;38120;53.176;6.614;2023-06-10T04:51:35;12.07;;;6.45;;
52126;SDS011;38120;53.176;6.614;2023-06-10T04:54:01;14.38;;;6.53;;
52126;SDS011;38120;53.176;6.614;2023-06-10T04:56:28;12.45;;;6.68;;
52126;SDS011;38120;53.176;6.614;2023-06-10T04:58:56;15.35;;;7.28;;
52126;SDS011;38120;53.176;6.614;2023-06-10T05:01:22;15.60;;;8.15;;
52126;SDS011;38120;53.176;6.614;2023-06-10T05:03:48;12.23;;;7.03;;
52126;SDS011;38120;53.176;6.614;2023-06-10T05:06:14;12.68;;;6.60;;
52126;SDS011;38120;53.176;6.614;2023-06-10T05:08:40;15.05;;;6.70;;
52126;SDS011;38120;53.176;6.614;2023-06-10T05:11:06;14.20;;;6.45;;
52126;SDS011;38120;53.176;6.614;2023-06-10T05:13:32;17.45;;;7.55;;
52126;SDS011;38120;53.176;6.614;2023-06-10T05:15:57;14.80;;;7.07;;
52126;SDS011;38120;53.176;6.614;2023-06-10T05:18:23;10.88;;;7.60;;
52126;SDS011;38120;53.176;6.614;2023-06-10T05:20:49;16.42;;;8.10;;
52126;SDS011;38120;53.176;6.614;2023-06-10T05:23:15;12.18;;;6.65;;
52126;SDS011;38120;53.176;6.614;2023-06-10T05:25:41;13.23;;;7.60;;
52126;SDS011;38120;53.176;6.614;2023-06-10T05:30:35;11.57;;;6.18;;
52126;SDS011;38120;53.176;6.614;2023-06-10T05:35:27;11.80;;;6.05;;
52126;SDS011;38120;53.176;6.614;2023-06-10T05:37:53;13.60;;;7.38;;
52126;SDS011;38120;53.176;6.614;2023-06-10T05:40:19;12.93;;;6.20;;
52126;SDS011;38120;53.176;6.614;2023-06-10T05:42:45;17.20;;;6.63;;
52126;SDS011;38120;53.176;6.614;2023-06-10T05:45:11;9.60;;;6.32;;
52126;SDS011;38120;53.176;6.614;2023-06-10T05:47:36;15.00;;;7.32;;
52126;SDS011;38120;53.176;6.614;2023-06-10T05:50:05;18.08;;;5.82;;
52126;SDS011;38120;53.176;6.614;2023-06-10T05:52:35;12.73;;;7.40;;
52126;SDS011;38120;53.176;6.614;2023-06-10T05:55:04;14.43;;;5.90;;
52126;SDS011;38120;53.176;6.614;2023-06-10T05:57:30;16.33;;;6.05;;
52126;SDS011;38120;53.176;6.614;2023-06-10T05:59:56;10.25;;;5.68;;
52126;SDS011;38120;53.176;6.614;2023-06-10T06:02:22;10.05;;;5.47;;
52126;SDS011;38120;53.176;6.614;2023-06-10T06:04:48;15.13;;;5.90;;
52126;SDS011;38120;53.176;6.614;2023-06-10T06:07:14;18.38;;;6.88;;
52126;SDS011;38120;53.176;6.614;2023-06-10T06:09:39;12.48;;;6.72;;
52126;SDS011;38120;53.176;6.614;2023-06-10T06:12:05;11.52;;;5.78;;
52126;SDS011;38120;53.176;6.614;2023-06-10T06:14:32;11.68;;;5.88;;
52126;SDS011;38120;53.176;6.614;2023-06-10T06:17:01;12.55;;;5.50;;
52126;SDS011;38120;53.176;6.614;2023-06-10T06:19:27;14.32;;;5.78;;
52126;SDS011;38120;53.176;6.614;2023-06-10T06:21:53;14.60;;;6.15;;
52126;SDS011;38120;53.176;6.614;2023-06-10T06:24:19;11.43;;;6.53;;
52126;SDS011;38120;53.176;6.614;2023-06-10T06:26:45;13.10;;;7.07;;
52126;SDS011;38120;53.176;6.614;2023-06-10T06:29:11;14.27;;;6.50;;
52126;SDS011;38120;53.176;6.614;2023-06-10T06:31:37;11.93;;;5.50;;
52126;SDS011;38120;53.176;6.614;2023-06-10T06:34:02;9.85;;;6.13;;
52126;SDS011;38120;53.176;6.614;2023-06-10T06:36:28;11.07;;;5.80;;
52126;SDS011;38120;53.176;6.614;2023-06-10T06:38:54;12.30;;;5.25;;
52126;SDS011;38120;53.176;6.614;2023-06-10T06:41:19;11.30;;;5.68;;
52126;SDS011;38120;53.176;6.614;2023-06-10T06:43:47;9.43;;;5.32;;
52126;SDS011;38120;53.176;6.614;2023-06-10T06:46:12;9.45;;;5.32;;
52126;SDS011;38120;53.176;6.614;2023-06-10T06:48:38;9.23;;;5.47;;
52126;SDS011;38120;53.176;6.614;2023-06-10T06:51:04;9.20;;;5.68;;
52126;SDS011;38120;53.176;6.614;2023-06-10T06:53:30;10.13;;;6.03;;
52126;SDS011;38120;53.176;6.614;2023-06-10T06:55:55;10.90;;;5.32;;
52126;SDS011;38120;53.176;6.614;2023-06-10T06:58:21;10.10;;;5.47;;
52126;SDS011;38120;53.176;6.614;2023-06-10T07:00:47;12.15;;;5.63;;
52126;SDS011;38120;53.176;6.614;2023-06-10T07:03:12;9.82;;;5.28;;
52126;SDS011;38120;53.176;6.614;2023-06-10T07:05:38;12.88;;;6.00;;
52126;SDS011;38120;53.176;6.614;2023-06-10T07:08:04;10.45;;;5.60;;
52126;SDS011;38120;53.176;6.614;2023-06-10T07:10:30;15.05;;;5.82;;
52126;SDS011;38120;53.176;6.614;2023-06-10T07:12:55;9.30;;;5.93;;
52126;SDS011;38120;53.176;6.614;2023-06-10T07:15:21;11.40;;;5.40;;
52126;SDS011;38120;53.176;6.614;2023-06-10T07:17:47;11.18;;;5.78;;
52126;SDS011;38120;53.176;6.614;2023-06-10T07:20:12;11.75;;;5.07;;
52126;SDS011;38120;53.176;6.614;2023-06-10T07:22:39;11.05;;;5.43;;
52126;SDS011;38120;53.176;6.614;2023-06-10T07:25:06;15.10;;;6.95;;
52126;SDS011;38120;53.176;6.614;2023-06-10T07:27:34;11.18;;;6.00;;
52126;SDS011;38120;53.176;6.614;2023-06-10T07:30:02;8.77;;;5.45;;
52126;SDS011;38120;53.176;6.614;2023-06-10T07:32:29;9.98;;;5.35;;
52126;SDS011;38120;53.176;6.614;2023-06-10T07:34:55;7.70;;;5.15;;
52126;SDS011;38120;53.176;6.614;2023-06-10T07:37:21;9.13;;;5.70;;
52126;SDS011;38120;53.176;6.614;2023-06-10T07:39:47;10.90;;;6.80;;
52126;SDS011;38120;53.176;6.614;2023-06-10T07:42:12;10.95;;;6.28;;
52126;SDS011;38120;53.176;6.614;2023-06-10T07:44:38;7.55;;;4.50;;
52126;SDS011;38120;53.176;6.614;2023-06-10T07:47:04;11.45;;;5.40;;
52126;SDS011;38120;53.176;6.614;2023-06-10T07:49:30;10.07;;;5.75;;
52126;SDS011;38120;53.176;6.614;2023-06-10T07:51:55;10.68;;;4.97;;
52126;SDS011;38120;53.176;6.614;2023-06-10T07:54:21;8.52;;;4.80;;
52126;SDS011;38120;53.176;6.614;2023-06-10T07:56:47;9.52;;;5.30;;
52126;SDS011;38120;53.176;6.614;2023-06-10T07:59:13;13.10;;;4.90;;
52126;SDS011;38120;53.176;6.614;2023-06-10T08:01:39;10.15;;;5.20;;
52126;SDS011;38120;53.176;6.614;2023-06-10T08:04:05;10.32;;;4.70;;
52126;SDS011;38120;53.176;6.614;2023-06-10T08:08:57;12.93;;;5.57;;
52126;SDS011;38120;53.176;6.614;2023-06-10T08:11:23;8.93;;;4.70;;
52126;SDS011;38120;53.176;6.614;2023-06-10T08:13:49;8.05;;;4.65;;
52126;SDS011;38120;53.176;6.614;2023-06-10T08:16:16;9.20;;;4.80;;
52126;SDS011;38120;53.176;6.614;2023-06-10T08:18:42;14.23;;;4.38;;
52126;SDS011;38120;53.176;6.614;2023-06-10T08:21:07;11.75;;;4.38;;
52126;SDS011;38120;53.176;6.614;2023-06-10T08:23:33;8.40;;;4.95;;
52126;SDS011;38120;53.176;6.614;2023-06-10T08:25:59;9.80;;;4.95;;
52126;SDS011;38120;53.176;6.614;2023-06-10T08:28:24;9.02;;;4.53;;
52126;SDS011;38120;53.176;6.614;2023-06-10T08:30:50;8.38;;;4.45;;
52126;SDS011;38120;53.176;6.614;2023-06-10T08:33:16;8.05;;;4.60;;
52126;SDS011;38120;53.176;6.614;2023-06-10T08:35:42;8.30;;;4.45;;
52126;SDS011;38120;53.176;6.614;2023-06-10T08:38:07;8.60;;;4.25;;
52126;SDS011;38120;53.176;6.614;2023-06-10T08:40:33;10.57;;;4.72;;
52126;SDS011;38120;53.176;6.614;2023-06-10T08:45:35;9.98;;;3.60;;
52126;SDS011;38120;53.176;6.614;2023-06-10T08:48:04;10.77;;;4.30;;
52126;SDS011;38120;53.176;6.614;2023-06-10T08:50:33;7.18;;;4.18;;
52126;SDS011;38120;53.176;6.614;2023-06-10T08:53:01;8.48;;;4.72;;
52126;SDS011;38120;53.176;6.614;2023-06-10T08:55:30;11.95;;;4.60;;
52126;SDS011;38120;53.176;6.614;2023-06-10T08:57:59;8.05;;;4.18;;
52126;SDS011;38120;53.176;6.614;2023-06-10T09:00:26;11.55;;;4.60;;
52126;SDS011;38120;53.176;6.614;2023-06-10T09:02:52;9.25;;;4.57;;
52126;SDS011;38120;53.176;6.614;2023-06-10T09:05:18;9.02;;;4.50;;
52126;SDS011;38120;53.176;6.614;2023-06-10T09:07:45;9.38;;;4.63;;
52126;SDS011;38120;53.176;6.614;2023-06-10T09:10:12;8.45;;;4.70;;
52126;SDS011;38120;53.176;6.614;2023-06-10T09:12:38;6.28;;;3.70;;
52126;SDS011;38120;53.176;6.614;2023-06-10T09:15:05;8.65;;;3.30;;
52126;SDS011;38120;53.176;6.614;2023-06-10T09:17:31;7.32;;;3.60;;
52126;SDS011;38120;53.176;6.614;2023-06-10T09:19:59;10.68;;;4.60;;
52126;SDS011;38120;53.176;6.614;2023-06-10T09:22:27;8.00;;;4.57;;
52126;SDS011;38120;53.176;6.614;2023-06-10T09:27:51;6.05;;;3.30;;
52126;SDS011;38120;53.176;6.614;2023-06-10T09:30:25;8.52;;;4.18;;
52126;SDS011;38120;53.176;6.614;2023-06-10T09:32:59;8.52;;;4.88;;
52126;SDS011;38120;53.176;6.614;2023-06-10T09:35:27;8.45;;;4.55;;
52126;SDS011;38120;53.176;6.614;2023-06-10T09:37:55;8.88;;;3.90;;
52126;SDS011;38120;53.176;6.614;2023-06-10T09:40:25;6.15;;;3.50;;
52126;SDS011;38120;53.176;6.614;2023-06-10T09:42:56;8.23;;;4.25;;
52126;SDS011;38120;53.176;6.614;2023-06-10T09:45:27;8.80;;;4.32;;
52126;SDS011;38120;53.176;6.614;2023-06-10T09:47:56;6.45;;;3.90;;
52126;SDS011;38120;53.176;6.614;2023-06-10T09:50:22;7.13;;;3.22;;
52126;SDS011;38120;53.176;6.614;2023-06-10T09:52:48;10.30;;;3.85;;
52126;SDS011;38120;53.176;6.614;2023-06-10T09:55:14;9.15;;;4.45;;
52126;SDS011;38120;53.176;6.614;2023-06-10T09:57:40;10.02;;;4.00;;
52126;SDS011;38120;53.176;6.614;2023-06-10T10:00:07;6.88;;;3.67;;
52126;SDS011;38120;53.176;6.614;2023-06-10T10:02:39;6.30;;;3.67;;
52126;SDS011;38120;53.176;6.614;2023-06-10T10:05:16;8.80;;;3.78;;
52126;SDS011;38120;53.176;6.614;2023-06-10T10:07:44;8.73;;;3.83;;
52126;SDS011;38120;53.176;6.614;2023-06-10T10:10:11;8.10;;;3.53;;
52126;SDS011;38120;53.176;6.614;2023-06-10T10:12:38;9.98;;;4.28;;
52126;SDS011;38120;53.176;6.614;2023-06-10T10:15:08;8.48;;;3.92;;
52126;SDS011;38120;53.176;6.614;2023-06-10T10:17:49;6.75;;;3.92;;
52126;SDS011;38120;53.176;6.614;2023-06-10T10:20:22;8.35;;;4.32;;
52126;SDS011;38120;53.176;6.614;2023-06-10T10:22:52;7.72;;;3.80;;
52126;SDS011;38120;53.176;6.614;2023-06-10T10:25:23;9.90;;;3.40;;
52126;SDS011;38120;53.176;6.614;2023-06-10T10:27:55;8.52;;;3.35;;
52126;SDS011;38120;53.176;6.614;2023-06-10T10:30:24;9.20;;;3.75;;
52126;SDS011;38120;53.176;6.614;2023-06-10T10:36:00;7.45;;;3.17;;
52126;SDS011;38120;53.176;6.614;2023-06-10T10:38:26;9.55;;;3.65;;
52126;SDS011;38120;53.176;6.614;2023-06-10T10:40:53;8.57;;;3.70;;
52126;SDS011;38120;53.176;6.614;2023-06-10T10:43:21;9.20;;;3.55;;
52126;SDS011;38120;53.176;6.614;2023-06-10T10:48:22;8.48;;;3.40;;
52126;SDS011;38120;53.176;6.614;2023-06-10T10:50:56;8.68;;;3.88;;
52126;SDS011;38120;53.176;6.614;2023-06-10T10:53:23;9.60;;;4.07;;
52126;SDS011;38120;53.176;6.614;2023-06-10T10:56:00;8.27;;;3.58;;
52126;SDS011;38120;53.176;6.614;2023-06-10T10:58:31;8.45;;;4.00;;
52126;SDS011;38120;53.176;6.614;2023-06-10T11:03:24;10.27;;;3.95;;
52126;SDS011;38120;53.176;6.614;2023-06-10T11:05:56;9.57;;;4.30;;
52126;SDS011;38120;53.176;6.614;2023-06-10T11:10:53;9.88;;;4.25;;
52126;SDS011;38120;53.176;6.614;2023-06-10T11:15:47;8.23;;;3.95;;
52126;SDS011;38120;53.176;6.614;2023-06-10T11:28:36;8.13;;;3.92;;
52126;SDS011;38120;53.176;6.614;2023-06-10T11:33:27;9.88;;;3.83;;
52126;SDS011;38120;53.176;6.614;2023-06-10T11:35:54;7.47;;;3.72;;
52126;SDS011;38120;53.176;6.614;2023-06-10T11:38:22;8.02;;;3.80;;
52126;SDS011;38120;53.176;6.614;2023-06-10T11:43:15;8.10;;;3.90;;
52126;SDS011;38120;53.176;6.614;2023-06-10T11:45:43;8.13;;;3.85;;
52126;SDS011;38120;53.176;6.614;2023-06-10T11:48:10;6.78;;;3.95;;
52126;SDS011;38120;53.176;6.614;2023-06-10T11:50:37;7.43;;;4.00;;
52126;SDS011;38120;53.176;6.614;2023-06-10T11:53:03;7.75;;;4.03;;
52126;SDS011;38120;53.176;6.614;2023-06-10T11:58:14;9.75;;;3.97;;
52126;SDS011;38120;53.176;6.614;2023-06-10T12:00:51;6.00;;;4.07;;
52126;SDS011;38120;53.176;6.614;2023-06-10T12:03:19;9.10;;;4.20;;
52126;SDS011;38120;53.176;6.614;2023-06-10T12:08:25;11.25;;;3.47;;
52126;SDS011;38120;53.176;6.614;2023-06-10T12:10:52;9.68;;;4.35;;
52126;SDS011;38120;53.176;6.614;2023-06-10T12:13:19;7.68;;;3.75;;
52126;SDS011;38120;53.176;6.614;2023-06-10T12:15:45;9.23;;;4.05;;
52126;SDS011;38120;53.176;6.614;2023-06-10T12:18:18;6.93;;;3.63;;
52126;SDS011;38120;53.176;6.614;2023-06-10T12:23:15;10.60;;;4.18;;
52126;SDS011;38120;53.176;6.614;2023-06-10T12:25:49;10.65;;;4.35;;
52126;SDS011;38120;53.176;6.614;2023-06-10T12:28:22;8.07;;;3.60;;
52126;SDS011;38120;53.176;6.614;2023-06-10T12:30:49;7.60;;;3.92;;
52126;SDS011;38120;53.176;6.614;2023-06-10T12:33:16;9.07;;;4.10;;
52126;SDS011;38120;53.176;6.614;2023-06-10T12:38:20;7.72;;;4.13;;
52126;SDS011;38120;53.176;6.614;2023-06-10T12:40:52;9.07;;;4.40;;
52126;SDS011;38120;53.176;6.614;2023-06-10T12:43:24;7.00;;;4.22;;
52126;SDS011;38120;53.176;6.614;2023-06-10T12:45:50;8.57;;;4.28;;
52126;SDS011;38120;53.176;6.614;2023-06-10T12:48:17;9.88;;;4.18;;
52126;SDS011;38120;53.176;6.614;2023-06-10T12:50:46;6.45;;;3.92;;
52126;SDS011;38120;53.176;6.614;2023-06-10T12:53:17;6.85;;;4.03;;
52126;SDS011;38120;53.176;6.614;2023-06-10T12:55:43;9.25;;;4.15;;
52126;SDS011;38120;53.176;6.614;2023-06-10T12:58:11;10.40;;;4.28;;
52126;SDS011;38120;53.176;6.614;2023-06-10T13:00:37;9.65;;;4.47;;
52126;SDS011;38120;53.176;6.614;2023-06-10T13:03:04;10.65;;;5.13;;
52126;SDS011;38120;53.176;6.614;2023-06-10T13:05:33;6.70;;;3.67;;
52126;SDS011;38120;53.176;6.614;2023-06-10T13:08:00;10.10;;;3.97;;
52126;SDS011;38120;53.176;6.614;2023-06-10T13:10:26;8.55;;;4.22;;
52126;SDS011;38120;53.176;6.614;2023-06-10T13:12:52;9.65;;;4.47;;
52126;SDS011;38120;53.176;6.614;2023-06-10T13:15:19;6.45;;;3.92;;
52126;SDS011;38120;53.176;6.614;2023-06-10T13:17:45;10.15;;;4.18;;
52126;SDS011;38120;53.176;6.614;2023-06-10T13:20:15;8.43;;;3.67;;
52126;SDS011;38120;53.176;6.614;2023-06-10T13:22:41;8.02;;;4.05;;
52126;SDS011;38120;53.176;6.614;2023-06-10T13:25:07;9.93;;;3.83;;
52126;SDS011;38120;53.176;6.614;2023-06-10T13:27:34;7.45;;;3.92;;
52126;SDS011;38120;53.176;6.614;2023-06-10T13:30:04;7.50;;;3.65;;
52126;SDS011;38120;53.176;6.614;2023-06-10T13:32:34;7.70;;;4.10;;
52126;SDS011;38120;53.176;6.614;2023-06-10T13:35:00;5.68;;;3.58;;
52126;SDS011;38120;53.176;6.614;2023-06-10T13:37:26;6.80;;;3.60;;
52126;SDS011;38120;53.176;6.614;2023-06-10T13:39:52;6.47;;;3.80;;
52126;SDS011;38120;53.176;6.614;2023-06-10T13:42:18;5.10;;;2.97;;
52126;SDS011;38120;53.176;6.614;2023-06-10T13:44:46;7.15;;;3.20;;
52126;SDS011;38120;53.176;6.614;2023-06-10T13:47:14;5.93;;;3.15;;
52126;SDS011;38120;53.176;6.614;2023-06-10T13:49:40;7.00;;;3.80;;
52126;SDS011;38120;53.176;6.614;2023-06-10T13:52:06;6.75;;;2.92;;
52126;SDS011;38120;53.176;6.614;2023-06-10T13:54:33;5.90;;;3.15;;
52126;SDS011;38120;53.176;6.614;2023-06-10T13:57:01;7.25;;;3.58;;
52126;SDS011;38120;53.176;6.614;2023-06-10T13:59:26;7.85;;;2.90;;
52126;SDS011;38120;53.176;6.614;2023-06-10T14:01:52;7.43;;;2.92;;
52126;SDS011;38120;53.176;6.614;2023-06-10T14:04:18;9.13;;;3.35;;
52126;SDS011;38120;53.176;6.614;2023-06-10T14:06:44;5.20;;;2.40;;
52126;SDS011;38120;53.176;6.614;2023-06-10T14:09:10;7.65;;;2.97;;
52126;SDS011;38120;53.176;6.614;2023-06-10T14:11:38;7.95;;;3.58;;
52126;SDS011;38120;53.176;6.614;2023-06-10T14:14:03;7.15;;;3.15;;
52126;SDS011;38120;53.176;6.614;2023-06-10T14:16:29;7.55;;;2.90;;
52126;SDS011;38120;53.176;6.614;2023-06-10T14:18:55;11.30;;;3.15;;
52126;SDS011;38120;53.176;6.614;2023-06-10T14:21:20;8.35;;;3.72;;
52126;SDS011;38120;53.176;6.614;2023-06-10T14:23:46;5.18;;;2.90;;
52126;SDS011;38120;53.176;6.614;2023-06-10T14:26:14;7.28;;;3.65;;
52126;SDS011;38120;53.176;6.614;2023-06-10T14:28:39;8.02;;;3.15;;
52126;SDS011;38120;53.176;6.614;2023-06-10T14:31:05;7.13;;;3.58;;
52126;SDS011;38120;53.176;6.614;2023-06-10T14:33:32;6.38;;;3.42;;
52126;SDS011;38120;53.176;6.614;2023-06-10T14:35:59;5.63;;;3.05;;
52126;SDS011;38120;53.176;6.614;2023-06-10T14:38:26;8.02;;;3.67;;
52126;SDS011;38120;53.176;6.614;2023-06-10T14:40:51;5.35;;;3.00;;
52126;SDS011;38120;53.176;6.614;2023-06-10T14:43:18;5.82;;;3.00;;
52126;SDS011;38120;53.176;6.614;2023-06-10T14:45:44;7.18;;;3.45;;
52126;SDS011;38120;53.176;6.614;2023-06-10T14:48:12;5.93;;;3.35;;
52126;SDS011;38120;53.176;6.614;2023-06-10T14:50:40;8.35;;;3.45;;
52126;SDS011;38120;53.176;6.614;2023-06-10T14:53:10;7.13;;;3.50;;
52126;SDS011;38120;53.176;6.614;2023-06-10T14:55:35;8.80;;;3.58;;
52126;SDS011;38120;53.176;6.614;2023-06-10T14:58:01;6.00;;;3.38;;
52126;SDS011;38120;53.176;6.614;2023-06-10T15:00:27;8.90;;;3.13;;
52126;SDS011;38120;53.176;6.614;2023-06-10T15:02:52;7.47;;;2.90;;
52126;SDS011;38120;53.176;6.614;2023-06-10T15:05:20;9.25;;;2.80;;
52126;SDS011;38120;53.176;6.614;2023-06-10T15:07:46;6.57;;;2.88;;
52126;SDS011;38120;53.176;6.614;2023-06-10T15:10:13;6.00;;;3.30;;
52126;SDS011;38120;53.176;6.614;2023-06-10T15:12:38;5.45;;;2.63;;
52126;SDS011;38120;53.176;6.614;2023-06-10T15:15:04;6.70;;;2.95;;
52126;SDS011;38120;53.176;6.614;2023-06-10T15:17:30;8.18;;;2.42;;
52126;SDS011;38120;53.176;6.614;2023-06-10T15:19:56;5.38;;;3.00;;
52126;SDS011;38120;53.176;6.614;2023-06-10T15:22:22;4.60;;;2.58;;
52126;SDS011;38120;53.176;6.614;2023-06-10T15:24:47;5.05;;;2.45;;
52126;SDS011;38120;53.176;6.614;2023-06-10T15:27:13;6.63;;;2.75;;
52126;SDS011;38120;53.176;6.614;2023-06-10T15:29:39;7.60;;;3.10;;
52126;SDS011;38120;53.176;6.614;2023-06-10T15:32:05;8.73;;;2.97;;
52126;SDS011;38120;53.176;6.614;2023-06-10T15:34:31;7.65;;;3.10;;
52126;SDS011;38120;53.176;6.614;2023-06-10T15:36:57;5.15;;;2.70;;
52126;SDS011;38120;53.176;6.614;2023-06-10T15:39:23;6.43;;;2.70;;
52126;SDS011;38120;53.176;6.614;2023-06-10T15:41:51;8.32;;;3.03;;
52126;SDS011;38120;53.176;6.614;2023-06-10T15:44:16;7.68;;;3.15;;
52126;SDS011;38120;53.176;6.614;2023-06-10T15:46:42;9.18;;;3.33;;
52126;SDS011;38120;53.176;6.614;2023-06-10T15:49:08;9.00;;;2.55;;